Rickmers Yokohama — A8YA7 — position and weather

sailwx.info

Track history (hours):
 
Tides and Currents Weather Stations Pressure Air Temp Water Temp Dewpoint Dewpoint Depression Visibility Wind Speed Wind Dir Waves Ship Positions

Rickmers Yokohama

Last reported at 2018-Feb-20 09:04 UTC. Time now 2018-Feb-22 21:01 UTC.
Position N 01°15' E 104°07'.

Length 144 m; draft 8.7 m.

Type: Ship. MMSI: 636092187.

Date/timePositionNaut miles runAvg speedWind from/ knotsBaromVisibWave heightAir tempDewpointWater temp
2018-Feb-20 09:04N 01°15' E 104°07'314.1
2018-Feb-20 08:53N 01°14' E 104°04'513.7
2018-Feb-20 08:30N 01°14' E 103°59'713.6
2018-Feb-20 07:59N 01°12' E 103°52'4 7.8
2018-Feb-20 07:30N 01°13' E 103°49'1 2.6
2018-Feb-20 06:59N 01°14' E 103°49'0 0.1
2018-Feb-20 06:26N 01°14' E 103°49'0 0.0
2018-Feb-20 05:56N 01°14' E 103°49'0 0.0
2018-Feb-20 05:29N 01°14' E 103°49'0 0.1
2018-Feb-20 04:59N 01°14' E 103°49'0 0.1
2018-Feb-20 04:26N 01°14' E 103°49'0 0.0
2018-Feb-20 03:59N 01°14' E 103°49'0 0.3
2018-Feb-20 03:29N 01°14' E 103°49'0 0.3
2018-Feb-20 02:59N 01°14' E 103°49'0 0.1
2018-Feb-20 02:29N 01°14' E 103°49'0 0.2
2018-Feb-20 01:59N 01°14' E 103°49'0 0.1
2018-Feb-20 01:26N 01°14' E 103°49'0 0.0
2018-Feb-20 00:59N 01°14' E 103°49'0 0.0
2018-Feb-20 00:29N 01°14' E 103°49'0 0.1
2018-Feb-19 23:41N 01°14' E 103°49'0 0.0
2018-Feb-19 23:20N 01°14' E 103°49'0 0.0
2018-Feb-19 22:59N 01°14' E 103°49'0 0.0
2018-Feb-19 22:26N 01°14' E 103°49'0 0.1
2018-Feb-19 21:50N 01°14' E 103°49'0 0.1
2018-Feb-19 21:23N 01°14' E 103°49'0 0.2
2018-Feb-19 20:59N 01°14' E 103°49'0 0.0
2018-Feb-19 20:23N 01°14' E 103°49'0 0.2
2018-Feb-19 19:59N 01°14' E 103°49'0 0.2
2018-Feb-19 19:26N 01°14' E 103°49'1 1.2
2018-Feb-19 19:00N 01°14' E 103°48'4 7.5
2018-Feb-19 18:31N 01°16' E 103°45'3 2.8
2018-Feb-19 17:26N 01°18' E 103°43'0 0.0
2018-Feb-19 16:59N 01°18' E 103°43'0 0.0
2018-Feb-19 16:29N 01°18' E 103°43'0 0.0
2018-Feb-19 15:59N 01°18' E 103°43'0 0.0
2018-Feb-19 15:14N 01°18' E 103°43'0 0.0
2018-Feb-19 14:11N 01°18' E 103°43'0 0.0
2018-Feb-19 13:56N 01°18' E 103°43'0 0.0
2018-Feb-19 13:14N 01°18' E 103°43'0 0.0
2018-Feb-19 12:44N 01°18' E 103°43'0 0.0
2018-Feb-19 12:11N 01°18' E 103°43'0 0.0
2018-Feb-19 11:53N 01°18' E 103°43'0 0.0
2018-Feb-19 11:29N 01°18' E 103°43'0 0.0
2018-Feb-19 10:59N 01°18' E 103°43'0 0.0
2018-Feb-19 10:29N 01°18' E 103°43'0 0.4
2018-Feb-19 10:00N 01°18' E 103°43'3 5.0
2018-Feb-19 09:30N 01°16' E 103°45'3 5.8
2018-Feb-19 09:00N 01°14' E 103°47'4 8.5
2018-Feb-19 08:30N 01°12' E 103°51'3 6.3
2018-Feb-19 08:00N 01°14' E 103°54'611.6
2018-Feb-19 07:28N 01°15' E 103°60'  
Track history (hours):
 
Tides and Currents Weather Stations Pressure Air Temp Water Temp Dewpoint Dewpoint Depression Visibility Wind Speed Wind Dir Waves Ship Positions

Rickmers Yokohama

Last reported at 2018-Feb-20 09:04 UTC. Time now 2018-Feb-22 21:01 UTC.
Position N 01°15' E 104°07'.

Length 144 m; draft 8.7 m.

Type: Ship. MMSI: 636092187.

Date/timePositionNaut miles runAvg speedWind from/ knotsBaromVisibWave heightAir tempDewpointWater temp
2018-Feb-20 09:04N 01°15' E 104°07'314.1
2018-Feb-20 08:53N 01°14' E 104°04'513.7
2018-Feb-20 08:30N 01°14' E 103°59'713.6
2018-Feb-20 07:59N 01°12' E 103°52'4 7.8
2018-Feb-20 07:30N 01°13' E 103°49'1 2.6
2018-Feb-20 06:59N 01°14' E 103°49'0 0.1
2018-Feb-20 06:26N 01°14' E 103°49'0 0.0
2018-Feb-20 05:56N 01°14' E 103°49'0 0.0
2018-Feb-20 05:29N 01°14' E 103°49'0 0.1
2018-Feb-20 04:59N 01°14' E 103°49'0 0.1
2018-Feb-20 04:26N 01°14' E 103°49'0 0.0
2018-Feb-20 03:59N 01°14' E 103°49'0 0.3
2018-Feb-20 03:29N 01°14' E 103°49'0 0.3
2018-Feb-20 02:59N 01°14' E 103°49'0 0.1
2018-Feb-20 02:29N 01°14' E 103°49'0 0.2
2018-Feb-20 01:59N 01°14' E 103°49'0 0.1
2018-Feb-20 01:26N 01°14' E 103°49'0 0.0
2018-Feb-20 00:59N 01°14' E 103°49'0 0.0
2018-Feb-20 00:29N 01°14' E 103°49'0 0.1
2018-Feb-19 23:41N 01°14' E 103°49'0 0.0
2018-Feb-19 23:20N 01°14' E 103°49'0 0.0
2018-Feb-19 22:59N 01°14' E 103°49'0 0.0
2018-Feb-19 22:26N 01°14' E 103°49'0 0.1
2018-Feb-19 21:50N 01°14' E 103°49'0 0.1
2018-Feb-19 21:23N 01°14' E 103°49'0 0.2
2018-Feb-19 20:59N 01°14' E 103°49'0 0.0
2018-Feb-19 20:23N 01°14' E 103°49'0 0.2
2018-Feb-19 19:59N 01°14' E 103°49'0 0.2
2018-Feb-19 19:26N 01°14' E 103°49'1 1.2
2018-Feb-19 19:00N 01°14' E 103°48'4 7.5
2018-Feb-19 18:31N 01°16' E 103°45'3 2.8
2018-Feb-19 17:26N 01°18' E 103°43'0 0.0
2018-Feb-19 16:59N 01°18' E 103°43'0 0.0
2018-Feb-19 16:29N 01°18' E 103°43'0 0.0
2018-Feb-19 15:59N 01°18' E 103°43'0 0.0
2018-Feb-19 15:14N 01°18' E 103°43'0 0.0
2018-Feb-19 14:11N 01°18' E 103°43'0 0.0
2018-Feb-19 13:56N 01°18' E 103°43'0 0.0
2018-Feb-19 13:14N 01°18' E 103°43'0 0.0
2018-Feb-19 12:44N 01°18' E 103°43'0 0.0
2018-Feb-19 12:11N 01°18' E 103°43'0 0.0
2018-Feb-19 11:53N 01°18' E 103°43'0 0.0
2018-Feb-19 11:29N 01°18' E 103°43'0 0.0
2018-Feb-19 10:59N 01°18' E 103°43'0 0.0
2018-Feb-19 10:29N 01°18' E 103°43'0 0.4
2018-Feb-19 10:00N 01°18' E 103°43'3 5.0
2018-Feb-19 09:30N 01°16' E 103°45'3 5.8
2018-Feb-19 09:00N 01°14' E 103°47'4 8.5
2018-Feb-19 08:30N 01°12' E 103°51'3 6.3
2018-Feb-19 08:00N 01°14' E 103°54'611.6
2018-Feb-19 07:28N 01°15' E 103°60'  

Dump ship's entire track history